createdAt,value
2022-09-03T00:02:21.489Z,98417.53
2022-09-03T00:07:43.128Z,98417.53
2022-09-03T00:12:47.799Z,98403.84
2022-09-03T00:17:54.735Z,98396.81
2022-09-03T00:23:03.685Z,98397.59
2022-09-03T00:28:19.370Z,98392.91
2022-09-03T00:33:24.859Z,98381.22
2022-09-03T00:38:29.653Z,98389.81
2022-09-03T00:43:46.464Z,98377.28
2022-09-03T00:48:48.297Z,98391.00
2022-09-03T00:54:01.425Z,98384.34
2022-09-03T00:59:51.907Z,98375.72
2022-09-03T01:05:08.975Z,98379.66
2022-09-03T01:10:44.772Z,98378.06
2022-09-03T01:16:11.634Z,98377.69
2022-09-03T01:22:03.450Z,98378.88
2022-09-03T01:27:08.006Z,98389.84
2022-09-03T01:32:45.261Z,98373.41
2022-09-03T01:38:14.912Z,98380.44
2022-09-03T01:43:22.719Z,98386.69
2022-09-03T01:48:44.489Z,98389.81
2022-09-03T01:53:55.525Z,98396.88
2022-09-03T01:59:21.712Z,98383.94
2022-09-03T02:04:26.296Z,98396.03
2022-09-03T02:09:32.568Z,98396.03
2022-09-03T02:14:36.306Z,98384.66
2022-09-03T02:19:39.613Z,98389.66
2022-09-03T02:24:41.525Z,98385.72
2022-09-03T02:29:43.585Z,98389.59
2022-09-03T02:34:45.582Z,98391.94
2022-09-03T02:39:47.686Z,98394.19
2022-09-03T02:44:55.574Z,98393.41
2022-09-03T02:49:57.559Z,98389.84
2022-09-03T02:54:59.427Z,98393.28
2022-09-03T03:00:01.344Z,98389.38
2022-09-03T03:05:04.376Z,98382.31
2022-09-03T03:10:06.734Z,98380.72
2022-09-03T03:15:08.935Z,98372.47
2022-09-03T03:20:11.070Z,98371.28
2022-09-03T03:25:12.977Z,98366.56
2022-09-03T03:30:14.976Z,98372.31
2022-09-03T03:35:16.890Z,98378.94
2022-09-03T03:40:20.348Z,98378.09
2022-09-03T03:45:22.210Z,98377.28
2022-09-03T03:50:24.106Z,98377.25
2022-09-03T03:55:27.130Z,98373.28
2022-09-03T04:00:29.111Z,98378.25
2022-09-03T04:05:33.596Z,98370.78
2022-09-03T04:10:37.046Z,98366.91
2022-09-03T04:15:39.209Z,98370.75
2022-09-03T04:20:41.128Z,98366.41
2022-09-03T04:25:44.302Z,98363.63
2022-09-03T04:30:47.568Z,98365.13
2022-09-03T04:35:51.148Z,98355.00
2022-09-03T04:40:53.142Z,98362.78
2022-09-03T04:46:02.963Z,98356.59
2022-09-03T04:51:15.718Z,98355.84
2022-09-03T04:56:25.792Z,98367.19
2022-09-03T05:01:29.707Z,98373.84
2022-09-03T05:06:33.752Z,98369.22
2022-09-03T05:11:35.646Z,98358.38
2022-09-03T05:16:37.723Z,98354.56
2022-09-03T05:21:39.700Z,98365.97
2022-09-03T05:26:42.053Z,98361.38
2022-09-03T05:31:44.037Z,98360.28
2022-09-03T05:36:47.109Z,98358.03
2022-09-03T05:41:50.702Z,98372.13
2022-09-03T05:46:53.663Z,98373.75
2022-09-03T05:51:55.799Z,98371.47
2022-09-03T05:56:57.678Z,98366.06
2022-09-03T06:02:00.469Z,98380.22
2022-09-03T06:07:02.575Z,98381.47
2022-09-03T06:12:04.839Z,98374.16
2022-09-03T06:17:06.814Z,98374.94
2022-09-03T06:22:08.757Z,98382.00
2022-09-03T06:27:10.641Z,98387.47
2022-09-03T06:32:12.551Z,98377.22
2022-09-03T06:37:14.533Z,98385.75
2022-09-03T06:42:16.436Z,98387.28
2022-09-03T06:47:18.322Z,98389.59
2022-09-03T06:52:20.459Z,98386.38
2022-09-03T06:57:22.358Z,98389.38
2022-09-03T07:02:24.283Z,98389.97
2022-09-03T07:07:26.208Z,98386.72
2022-09-03T07:12:28.142Z,98380.66
2022-09-03T07:17:30.010Z,98376.47
2022-09-03T07:22:31.925Z,98371.84
2022-09-03T07:27:35.535Z,98365.63
2022-09-03T07:32:41.119Z,98369.63
2022-09-03T07:37:43.515Z,98365.13
2022-09-03T07:42:46.980Z,98358.50
2022-09-03T07:47:50.081Z,98357.81
2022-09-03T07:53:01.778Z,98355.03
2022-09-03T07:58:03.866Z,98354.84
2022-09-03T08:03:08.618Z,98363.75
2022-09-03T08:08:11.059Z,98356.84
2022-09-03T08:13:17.499Z,98360.13
2022-09-03T08:18:20.083Z,98358.22
2022-09-03T08:23:23.483Z,98355.22
2022-09-03T08:28:25.425Z,98355.28
2022-09-03T08:33:39.582Z,98357.78
2022-09-03T08:38:45.630Z,98347.13
2022-09-03T08:44:03.363Z,98344.81
2022-09-03T08:49:07.272Z,98349.91
2022-09-03T08:54:11.146Z,98351.97
2022-09-03T08:59:13.088Z,98348.69
2022-09-03T09:04:45.622Z,98337.38
2022-09-03T09:09:56.677Z,98332.78
2022-09-03T09:15:12.949Z,98330.75
2022-09-03T09:20:14.756Z,98340.63
2022-09-03T09:25:22.455Z,98331.03
2022-09-03T09:30:24.335Z,98325.22
2022-09-03T09:35:26.970Z,98323.03
2022-09-03T09:40:35.187Z,98320.50
2022-09-03T09:45:42.202Z,98315.88
2022-09-03T09:50:44.258Z,98302.16
2022-09-03T09:55:58.314Z,98302.13
2022-09-03T10:01:13.177Z,98289.63
2022-09-03T10:06:35.189Z,98300.81
2022-09-03T10:11:40.597Z,98307.78
2022-09-03T10:16:49.018Z,98305.25
2022-09-03T10:22:03.635Z,98299.66
2022-09-03T10:27:12.750Z,98287.47
2022-09-03T10:33:00.769Z,98283.66
2022-09-03T10:38:18.797Z,98284.22
2022-09-03T10:43:20.640Z,98287.38
2022-09-03T10:48:26.563Z,98276.97
2022-09-03T10:53:50.668Z,98268.72
2022-09-03T10:59:10.803Z,98266.75
2022-09-03T11:04:20.028Z,98258.38
2022-09-03T11:09:46.183Z,98252.47
2022-09-03T11:15:03.831Z,98257.47
2022-09-03T11:20:20.851Z,98254.66
2022-09-03T11:25:28.695Z,98248.59
2022-09-03T11:30:50.136Z,98246.19
2022-09-03T11:36:01.459Z,98243.97
2022-09-03T11:41:24.516Z,98240.31
2022-09-03T11:46:26.642Z,98254.75
2022-09-03T11:51:30.669Z,98253.19
2022-09-03T11:56:34.531Z,98247.00
2022-09-03T12:01:37.808Z,98233.97
2022-09-03T12:06:57.408Z,98236.03
2022-09-03T12:12:24.128Z,98238.50
2022-09-03T12:17:28.978Z,98236.47
2022-09-03T12:22:38.806Z,98229.50
2022-09-03T12:27:45.655Z,98227.63
2022-09-03T12:32:48.612Z,98230.84
2022-09-03T12:38:14.944Z,98221.00
2022-09-03T12:54:17.873Z,98230.22
2022-09-03T12:59:22.388Z,98218.69
2022-09-03T13:04:34.702Z,98213.41
2022-09-03T13:09:40.615Z,98212.84
2022-09-03T13:14:48.376Z,98201.75
2022-09-03T13:20:23.262Z,98197.78
2022-09-03T13:25:42.107Z,98201.63
2022-09-03T13:30:58.838Z,98198.56
2022-09-03T13:36:08.978Z,98195.91
2022-09-03T13:41:30.280Z,98194.34
2022-09-03T13:46:45.755Z,98194.59
2022-09-03T13:51:56.984Z,98187.31
2022-09-03T13:57:06.185Z,98182.69
2022-09-03T14:02:17.058Z,98181.94
2022-09-03T14:07:26.896Z,98181.63
2022-09-03T14:12:45.764Z,98177.03
2022-09-03T14:18:01.846Z,98165.91
2022-09-03T14:23:48.707Z,98172.84
2022-09-03T14:29:03.795Z,98176.41
2022-09-03T14:34:14.821Z,98180.25
2022-09-03T14:39:56.026Z,98177.63
2022-09-03T14:44:59.523Z,98190.13
2022-09-03T14:50:28.590Z,98174.53
2022-09-03T14:56:04.938Z,98173.25
2022-09-03T15:01:19.308Z,98172.06
2022-09-03T15:06:42.307Z,98173.00
2022-09-03T15:11:52.896Z,98173.81
2022-09-03T15:17:36.652Z,98170.72
2022-09-03T15:22:58.070Z,98181.81
2022-09-03T15:28:20.083Z,98171.88
2022-09-03T15:33:47.995Z,98167.56
2022-09-03T15:39:16.595Z,98168.44
2022-09-03T15:44:23.030Z,98172.31
2022-09-03T15:49:32.131Z,98171.69
2022-09-03T15:55:09.893Z,98180.06
2022-09-03T16:00:21.359Z,98180.59
2022-09-03T16:05:35.716Z,98183.88
2022-09-03T16:10:51.106Z,98186.59
2022-09-03T16:16:06.930Z,98177.06
2022-09-03T16:21:26.213Z,98169.31
2022-09-03T16:26:42.310Z,98174.16
2022-09-03T16:32:27.133Z,98167.94
2022-09-03T16:37:36.714Z,98186.47
2022-09-03T16:43:41.435Z,98191.59
2022-09-03T16:49:23.472Z,98184.00
2022-09-03T16:54:40.921Z,98180.88
2022-09-03T16:59:51.811Z,98171.59
2022-09-03T17:05:10.350Z,98175.59
2022-09-03T17:10:33.458Z,98180.16
2022-09-03T17:15:38.284Z,98167.41
2022-09-03T17:20:49.687Z,98174.09
2022-09-03T17:26:48.994Z,98188.03
2022-09-03T17:32:36.543Z,98188.69
2022-09-03T17:38:02.148Z,98186.72
2022-09-03T17:43:15.881Z,98201.63
2022-09-03T17:48:32.629Z,98191.47
2022-09-03T17:53:45.988Z,98192.00
2022-09-03T17:59:04.140Z,98203.97
2022-09-03T18:04:28.633Z,98202.78
2022-09-03T18:09:41.372Z,98199.59
2022-09-03T18:14:43.580Z,98220.91
2022-09-03T18:20:27.401Z,98228.28
2022-09-03T18:25:50.057Z,98223.41
2022-09-03T18:31:10.890Z,98241.38
2022-09-03T18:36:31.627Z,98236.03
2022-09-03T18:42:04.339Z,98235.06
2022-09-03T18:48:06.869Z,98237.31
2022-09-03T18:53:48.027Z,98240.84
2022-09-03T18:59:38.655Z,98242.53
2022-09-03T19:04:59.735Z,98252.56
2022-09-03T19:10:30.401Z,98261.00
2022-09-03T19:16:02.935Z,98250.84
2022-09-03T19:21:39.007Z,98251.16
2022-09-03T19:27:29.879Z,98253.66
2022-09-03T19:33:04.217Z,98254.22
2022-09-03T19:38:39.599Z,98263.84
2022-09-03T19:44:12.236Z,98254.50
2022-09-03T19:49:40.380Z,98260.19
2022-09-03T19:55:01.227Z,98265.81
2022-09-03T20:00:32.518Z,98269.44
2022-09-03T20:05:56.462Z,98268.25
2022-09-03T20:10:59.375Z,98278.97
2022-09-03T20:16:16.893Z,98285.81
2022-09-03T20:21:23.831Z,98288.94
2022-09-03T20:27:12.739Z,98291.75
2022-09-03T20:32:53.186Z,98297.31
2022-09-03T20:37:58.839Z,98289.94
2022-09-03T20:43:28.161Z,98292.69
2022-09-03T20:48:49.343Z,98301.38
2022-09-03T20:54:09.642Z,98304.50
2022-09-03T20:59:45.085Z,98303.84
2022-09-03T21:05:00.529Z,98311.00
2022-09-03T21:10:13.674Z,98311.97
2022-09-03T21:15:37.751Z,98308.19
2022-09-03T21:21:20.646Z,98306.06
2022-09-03T21:26:32.967Z,98307.06
2022-09-03T21:31:42.062Z,98308.78
2022-09-03T21:36:46.468Z,98303.03
2022-09-03T21:41:58.030Z,98305.72
2022-09-03T21:47:06.306Z,98318.25
2022-09-03T21:52:13.180Z,98320.75
2022-09-03T21:57:29.180Z,98323.94
2022-09-03T22:02:33.510Z,98339.34
2022-09-03T22:07:50.739Z,98328.75
2022-09-03T22:13:25.418Z,98319.41
2022-09-03T22:18:36.955Z,98321.09
2022-09-03T22:24:14.841Z,98329.75
2022-09-03T22:29:37.718Z,98325.41
2022-09-03T22:35:17.783Z,98327.66
2022-09-03T22:40:28.506Z,98325.75
2022-09-03T22:45:59.353Z,98322.66
2022-09-03T22:51:03.309Z,98325.00
2022-09-03T22:56:08.528Z,98319.53
2022-09-03T23:01:27.654Z,98321.97
2022-09-03T23:06:36.535Z,98318.84
2022-09-03T23:11:44.323Z,98321.97
2022-09-03T23:16:52.734Z,98317.31
2022-09-03T23:22:00.453Z,98326.00
2022-09-03T23:27:07.534Z,98328.38
2022-09-03T23:32:09.756Z,98323.69
2022-09-03T23:37:49.497Z,98322.91
2022-09-03T23:43:22.640Z,98335.13
2022-09-03T23:48:37.789Z,98329.66
2022-09-03T23:54:19.640Z,98333.63
2022-09-03T23:59:42.869Z,98328.91
